Time;durP1;ratioP1;P1;durP2;ratioP2;P2;SDS_P1;SDS_P2;PMS_P1;PMS_P2;Temp;Humidity;BMP_temperature;BMP_pressure;BME280_temperature;BME280_humidity;BME280_pressure;Samples;Min_cycle;Max_cycle;Signal;HPM_P1;HPM_P2
2023/12/12 00:16:59;;;;;;;14.85;11.30;;;;;;;20.47;52.12;99744.38;41683248;28;20132;-69
2023/12/12 00:36:59;;;;;;;15.75;11.50;;;;;;;20.40;52.01;99761.63;41685388;28;20033;-69
2023/12/12 00:56:59;;;;;;;16.30;12.20;;;;;;;20.40;51.89;99763.44;41670098;28;20045;-69
2023/12/12 01:17:00;;;;;;;14.63;11.35;;;;;;;20.37;52.15;99743.47;41660732;28;20171;-70
2023/12/12 01:37:01;;;;;;;14.57;11.27;;;;;;;20.36;52.25;99762.00;41661560;28;20041;-68
2023/12/12 01:57:03;;;;;;;15.20;11.55;;;;;;;20.35;52.03;99748.03;41653557;28;20378;-69
2023/12/12 02:17:04;;;;;;;14.52;11.27;;;;;;;20.37;52.17;99761.88;41671296;28;20048;-69
2023/12/12 02:37:05;;;;;;;13.48;10.65;;;;;;;20.36;51.95;99764.63;41681860;28;20467;-68
2023/12/12 02:57:06;;;;;;;13.73;10.80;;;;;;;20.34;52.06;99761.31;41688504;28;20084;-68
2023/12/12 03:17:07;;;;;;;12.93;9.93;;;;;;;20.34;51.97;99774.47;41686023;28;20038;-68
2023/12/12 03:37:07;;;;;;;14.43;10.60;;;;;;;20.31;52.09;99788.66;41628299;28;1136219;-69
2023/12/12 03:57:07;;;;;;;13.20;10.02;;;;;;;20.33;52.28;99792.00;41684862;28;20298;-69
2023/12/12 04:17:08;;;;;;;13.75;10.25;;;;;;;20.31;52.02;99814.97;41666175;28;20471;-69
2023/12/12 04:37:08;;;;;;;12.70;9.55;;;;;;;20.31;52.00;99810.56;41647842;28;20619;-69
2023/12/12 04:57:08;;;;;;;12.95;9.98;;;;;;;20.28;52.10;99802.09;41668130;28;20132;-69
2023/12/12 05:17:09;;;;;;;12.85;9.80;;;;;;;20.43;51.09;99813.97;41627723;28;21190;-71
2023/12/12 05:37:09;;;;;;;24.50;12.48;;;;;;;21.00;53.49;99834.66;41613187;28;20041;-74
2023/12/12 05:57:10;;;;;;;29.73;12.45;;;;;;;21.15;52.38;99850.94;41631244;28;20049;-82
2023/12/12 06:17:11;;;;;;;36.17;14.93;;;;;;;21.37;52.33;99883.34;41595917;28;20045;-71
2023/12/12 06:37:12;;;;;;;25.65;13.43;;;;;;;21.42;50.50;99908.31;41593952;28;20053;-73
2023/12/12 06:57:13;;;;;;;23.58;13.27;;;;;;;21.54;50.62;99911.69;41646918;28;20040;-75
2023/12/12 07:17:14;;;;;;;22.45;12.55;;;;;;;21.53;51.17;99917.09;41690195;28;20459;-75
2023/12/12 07:37:14;;;;;;;18.58;11.68;;;;;;;21.57;50.97;99943.06;41700953;28;20105;-75
2023/12/12 07:57:15;;;;;;;16.08;10.95;;;;;;;21.63;50.26;99960.16;41709976;28;20052;-74
2023/12/12 08:17:15;;;;;;;17.45;10.93;;;;;;;21.77;49.81;99966.03;41710414;28;20291;-73
2023/12/12 08:37:16;;;;;;;18.27;12.88;;;;;;;21.75;49.89;99935.38;41693761;28;20045;-74
2023/12/12 08:57:17;;;;;;;17.88;13.43;;;;;;;21.86;49.24;99976.63;41672701;28;20056;-74
2023/12/12 09:17:18;;;;;;;18.85;13.48;;;;;;;21.86;48.74;99976.63;41622987;28;20049;-73
2023/12/12 09:37:22;;;;;;;20.10;14.55;;;;;;;21.93;48.91;99958.44;41648202;28;20109;-73
2023/12/12 09:57:23;;;;;;;19.25;14.05;;;;;;;22.06;48.27;99950.31;41629513;28;20053;-75
2023/12/12 10:17:25;;;;;;;19.42;14.55;;;;;;;22.16;47.96;99932.69;41647100;28;20496;-75
2023/12/12 10:37:25;;;;;;;19.88;15.27;;;;;;;22.59;47.79;99927.22;41662707;28;20052;-73
2023/12/12 10:57:29;;;;;;;20.52;15.60;;;;;;;22.56;48.60;99938.88;41676347;28;20080;-73
2023/12/12 11:17:29;;;;;;;18.73;13.80;;;;;;;22.65;48.43;99947.75;41609937;28;20409;-75
2023/12/12 11:37:40;;;;;;;16.65;12.63;;;;;;;22.68;48.01;99929.84;41643943;28;20046;-78
2023/12/12 11:57:41;;;;;;;15.07;11.73;;;;;;;22.65;47.94;99922.19;41512272;28;20116;-74
2023/12/12 12:17:42;;;;;;;13.18;10.65;;;;;;;22.65;48.52;99900.25;41481277;28;20073;-76
2023/12/12 12:37:43;;;;;;;13.43;10.35;;;;;;;22.58;48.66;99889.41;41667353;28;20041;-76
2023/12/12 12:57:44;;;;;;;12.30;9.80;;;;;;;22.61;48.42;99883.06;41507276;28;20045;-73
2023/12/12 13:17:44;;;;;;;14.45;9.45;;;;;;;22.61;48.92;99857.50;41620174;28;20041;-75
2023/12/12 13:37:46;;;;;;;38.55;16.73;;;;;;;22.58;49.82;99873.59;41634994;28;20042;-72
2023/12/12 13:57:46;;;;;;;31.92;13.85;;;;;;;22.49;50.22;99888.47;41610350;28;20396;-75
2023/12/12 14:17:47;;;;;;;27.00;12.30;;;;;;;22.32;51.00;99900.50;41606607;28;20058;-73
2023/12/12 14:37:47;;;;;;;19.27;10.93;;;;;;;22.20;51.00;99899.81;41662967;28;20516;-75
2023/12/12 14:57:47;;;;;;;20.23;10.57;;;;;;;22.11;50.86;99876.09;41700508;28;20515;-74
2023/12/12 15:17:48;;;;;;;17.52;9.90;;;;;;;22.00;50.85;99853.31;41692325;28;20378;-74
2023/12/12 15:37:48;;;;;;;13.95;9.20;;;;;;;21.87;51.06;99840.38;41677423;28;20037;-72
2023/12/12 15:57:50;;;;;;;13.02;8.13;;;;;;;21.86;51.21;99841.34;41670071;28;20057;-74
2023/12/12 16:17:50;;;;;;;12.07;7.82;;;;;;;21.74;51.20;99822.22;41655710;28;20053;-74
2023/12/12 16:37:51;;;;;;;25.60;9.15;;;;;;;21.70;50.67;99844.50;41635481;28;20489;-72
2023/12/12 16:57:51;;;;;;;13.77;8.02;;;;;;;21.66;50.63;99835.22;41660349;28;20064;-73
2023/12/12 17:17:51;;;;;;;14.82;8.05;;;;;;;21.62;50.71;99803.03;41663516;28;20469;-72
2023/12/12 17:37:52;;;;;;;16.70;7.63;;;;;;;21.58;50.63;99770.88;41667977;28;20050;-70
2023/12/12 17:57:52;;;;;;;12.13;8.30;;;;;;;21.51;50.62;99798.69;41630892;28;20041;-72
2023/12/12 18:17:52;;;;;;;14.88;8.95;;;;;;;21.43;50.38;99780.94;41616930;28;20389;-73
2023/12/12 18:37:53;;;;;;;13.55;8.60;;;;;;;21.43;50.89;99762.50;41609930;28;20053;-74
2023/12/12 18:57:54;;;;;;;12.48;8.15;;;;;;;21.41;51.45;99750.41;41653813;28;20598;-74
2023/12/12 19:17:55;;;;;;;10.63;7.55;;;;;;;21.38;51.30;99733.06;41659751;28;20064;-75
2023/12/12 19:37:56;;;;;;;12.02;8.35;;;;;;;21.41;52.35;99711.75;41647841;28;20676;-74
2023/12/12 19:57:57;;;;;;;14.32;8.48;;;;;;;21.47;52.31;99685.81;41640440;28;20045;-75
2023/12/12 20:17:58;;;;;;;24.27;11.93;;;;;;;;;;41659625;28;20079;-74
2023/12/12 20:38:01;;;;;;;19.30;13.27;;;;;;;21.26;56.60;99627.06;41626731;28;20063;-70
2023/12/12 20:58:02;;;;;;;17.45;12.45;;;;;;;21.53;55.07;99609.72;41627294;28;20504;-70
2023/12/12 21:18:04;;;;;;;16.77;12.10;;;;;;;21.50;54.59;99606.53;41643190;28;20132;-69
2023/12/12 21:38:05;;;;;;;16.08;11.85;;;;;;;21.54;53.80;99586.84;41594324;28;20408;-71
2023/12/12 21:58:05;;;;;;;15.85;11.10;;;;;;;21.51;53.41;99577.41;41603784;28;20041;-64
2023/12/12 22:18:05;;;;;;;18.70;11.85;;;;;;;21.48;54.59;99558.44;41616638;28;20064;-69
2023/12/12 22:38:06;;;;;;;18.55;11.35;;;;;;;21.50;54.68;99535.44;41615816;28;20080;-65
2023/12/12 22:58:07;;;;;;;20.65;11.63;;;;;;;21.30;54.98;99474.91;41642393;28;20511;-70
2023/12/12 23:18:07;;;;;;;15.45;9.80;;;;;;;21.20;55.20;99432.78;41663714;28;20451;-70
2023/12/12 23:38:08;;;;;;;13.40;9.60;;;;;;;21.16;55.30;99406.88;41665662;28;20049;-72
2023/12/12 23:58:09;;;;;;;12.30;9.35;;;;;;;21.12;55.19;99390.53;41647440;28;20838;-71
